sensor_id;sensor_type;location;lat;lon;timestamp;P1;durP1;ratioP1;P2;durP2;ratioP2
50683;SDS011;36654;45.042;38.994;2023-05-07T00:01:55;14.85;;;4.20;;
50683;SDS011;36654;45.042;38.994;2023-05-07T00:04:21;12.10;;;4.07;;
50683;SDS011;36654;45.042;38.994;2023-05-07T00:06:46;9.38;;;4.45;;
50683;SDS011;36654;45.042;38.994;2023-05-07T00:09:12;8.82;;;3.97;;
50683;SDS011;36654;45.042;38.994;2023-05-07T00:11:38;14.68;;;4.15;;
50683;SDS011;36654;45.042;38.994;2023-05-07T00:14:03;8.95;;;3.90;;
50683;SDS011;36654;45.042;38.994;2023-05-07T00:16:29;12.55;;;3.63;;
50683;SDS011;36654;45.042;38.994;2023-05-07T00:18:55;13.27;;;4.47;;
50683;SDS011;36654;45.042;38.994;2023-05-07T00:21:20;11.82;;;3.55;;
50683;SDS011;36654;45.042;38.994;2023-05-07T00:23:46;10.38;;;4.00;;
50683;SDS011;36654;45.042;38.994;2023-05-07T00:26:12;7.05;;;3.78;;
50683;SDS011;36654;45.042;38.994;2023-05-07T00:28:38;16.00;;;4.03;;
50683;SDS011;36654;45.042;38.994;2023-05-07T00:31:04;11.20;;;4.93;;
50683;SDS011;36654;45.042;38.994;2023-05-07T00:33:29;9.93;;;3.55;;
50683;SDS011;36654;45.042;38.994;2023-05-07T00:35:55;11.10;;;4.25;;
50683;SDS011;36654;45.042;38.994;2023-05-07T00:38:21;11.20;;;3.53;;
50683;SDS011;36654;45.042;38.994;2023-05-07T00:40:46;12.70;;;3.67;;
50683;SDS011;36654;45.042;38.994;2023-05-07T00:43:12;8.30;;;3.60;;
50683;SDS011;36654;45.042;38.994;2023-05-07T00:45:38;12.68;;;4.03;;
50683;SDS011;36654;45.042;38.994;2023-05-07T00:48:04;6.75;;;3.97;;
50683;SDS011;36654;45.042;38.994;2023-05-07T00:50:30;14.20;;;3.60;;
50683;SDS011;36654;45.042;38.994;2023-05-07T00:52:57;17.60;;;4.32;;
50683;SDS011;36654;45.042;38.994;2023-05-07T00:55:24;9.13;;;3.50;;
50683;SDS011;36654;45.042;38.994;2023-05-07T00:57:50;7.10;;;3.60;;
50683;SDS011;36654;45.042;38.994;2023-05-07T01:00:16;8.18;;;3.40;;
50683;SDS011;36654;45.042;38.994;2023-05-07T01:02:43;7.88;;;3.75;;
50683;SDS011;36654;45.042;38.994;2023-05-07T01:05:12;11.00;;;4.30;;
50683;SDS011;36654;45.042;38.994;2023-05-07T01:07:40;11.13;;;3.83;;
50683;SDS011;36654;45.042;38.994;2023-05-07T01:10:07;5.75;;;3.95;;
50683;SDS011;36654;45.042;38.994;2023-05-07T01:12:34;10.20;;;4.38;;
50683;SDS011;36654;45.042;38.994;2023-05-07T01:15:01;10.48;;;3.95;;
50683;SDS011;36654;45.042;38.994;2023-05-07T01:17:28;26.80;;;4.53;;
50683;SDS011;36654;45.042;38.994;2023-05-07T01:19:54;6.47;;;3.80;;
50683;SDS011;36654;45.042;38.994;2023-05-07T01:22:32;9.35;;;3.80;;
50683;SDS011;36654;45.042;38.994;2023-05-07T01:24:59;5.43;;;4.32;;
50683;SDS011;36654;45.042;38.994;2023-05-07T01:27:26;9.48;;;4.00;;
50683;SDS011;36654;45.042;38.994;2023-05-07T01:29:52;11.43;;;3.83;;
50683;SDS011;36654;45.042;38.994;2023-05-07T01:33:04;14.10;;;4.50;;
50683;SDS011;36654;45.042;38.994;2023-05-07T01:35:07;8.45;;;3.75;;
50683;SDS011;36654;45.042;38.994;2023-05-07T01:37:36;9.85;;;4.63;;
50683;SDS011;36654;45.042;38.994;2023-05-07T01:40:03;8.30;;;3.50;;
50683;SDS011;36654;45.042;38.994;2023-05-07T01:42:29;4.82;;;3.30;;
50683;SDS011;36654;45.042;38.994;2023-05-07T01:44:56;13.75;;;3.83;;
50683;SDS011;36654;45.042;38.994;2023-05-07T01:47:22;8.88;;;3.05;;
50683;SDS011;36654;45.042;38.994;2023-05-07T01:49:48;7.60;;;3.75;;
50683;SDS011;36654;45.042;38.994;2023-05-07T01:52:13;6.97;;;3.70;;
50683;SDS011;36654;45.042;38.994;2023-05-07T01:54:39;7.55;;;3.22;;
50683;SDS011;36654;45.042;38.994;2023-05-07T01:57:05;6.80;;;3.67;;
50683;SDS011;36654;45.042;38.994;2023-05-07T01:59:30;10.10;;;3.35;;
50683;SDS011;36654;45.042;38.994;2023-05-07T02:01:56;10.90;;;3.00;;
50683;SDS011;36654;45.042;38.994;2023-05-07T02:04:21;7.18;;;3.17;;
50683;SDS011;36654;45.042;38.994;2023-05-07T02:06:47;10.50;;;3.63;;
50683;SDS011;36654;45.042;38.994;2023-05-07T02:09:13;12.43;;;3.33;;
50683;SDS011;36654;45.042;38.994;2023-05-07T02:11:39;6.82;;;3.85;;
50683;SDS011;36654;45.042;38.994;2023-05-07T02:14:05;9.18;;;3.33;;
50683;SDS011;36654;45.042;38.994;2023-05-07T02:16:31;6.18;;;3.70;;
50683;SDS011;36654;45.042;38.994;2023-05-07T02:18:56;5.40;;;3.10;;
50683;SDS011;36654;45.042;38.994;2023-05-07T02:21:23;7.18;;;3.92;;
50683;SDS011;36654;45.042;38.994;2023-05-07T02:23:50;7.70;;;3.58;;
50683;SDS011;36654;45.042;38.994;2023-05-07T02:26:15;7.25;;;3.60;;
50683;SDS011;36654;45.042;38.994;2023-05-07T02:28:41;4.65;;;3.28;;
50683;SDS011;36654;45.042;38.994;2023-05-07T02:31:07;14.25;;;3.72;;
50683;SDS011;36654;45.042;38.994;2023-05-07T02:33:32;11.45;;;4.30;;
50683;SDS011;36654;45.042;38.994;2023-05-07T02:36:06;7.25;;;2.85;;
50683;SDS011;36654;45.042;38.994;2023-05-07T02:38:36;6.32;;;3.10;;
50683;SDS011;36654;45.042;38.994;2023-05-07T02:41:02;8.45;;;3.63;;
50683;SDS011;36654;45.042;38.994;2023-05-07T02:43:27;6.10;;;3.47;;
50683;SDS011;36654;45.042;38.994;2023-05-07T02:46:03;4.50;;;2.72;;
50683;SDS011;36654;45.042;38.994;2023-05-07T02:48:30;5.68;;;3.15;;
50683;SDS011;36654;45.042;38.994;2023-05-07T02:50:56;4.85;;;2.92;;
50683;SDS011;36654;45.042;38.994;2023-05-07T02:53:22;10.00;;;3.20;;
50683;SDS011;36654;45.042;38.994;2023-05-07T02:55:50;7.43;;;2.85;;
50683;SDS011;36654;45.042;38.994;2023-05-07T02:58:17;5.03;;;3.22;;
50683;SDS011;36654;45.042;38.994;2023-05-07T03:00:43;5.80;;;2.92;;
50683;SDS011;36654;45.042;38.994;2023-05-07T03:03:08;5.38;;;3.25;;
50683;SDS011;36654;45.042;38.994;2023-05-07T03:05:34;8.13;;;3.38;;
50683;SDS011;36654;45.042;38.994;2023-05-07T03:08:00;6.13;;;3.03;;
50683;SDS011;36654;45.042;38.994;2023-05-07T03:10:25;7.22;;;2.80;;
50683;SDS011;36654;45.042;38.994;2023-05-07T03:12:51;7.30;;;3.22;;
50683;SDS011;36654;45.042;38.994;2023-05-07T03:15:16;4.93;;;2.72;;
50683;SDS011;36654;45.042;38.994;2023-05-07T03:17:42;9.13;;;3.03;;
50683;SDS011;36654;45.042;38.994;2023-05-07T03:20:08;5.88;;;2.97;;
50683;SDS011;36654;45.042;38.994;2023-05-07T03:22:34;5.65;;;3.13;;
50683;SDS011;36654;45.042;38.994;2023-05-07T03:25:00;7.63;;;2.78;;
50683;SDS011;36654;45.042;38.994;2023-05-07T03:27:26;6.55;;;2.90;;
50683;SDS011;36654;45.042;38.994;2023-05-07T03:29:51;7.13;;;3.05;;
50683;SDS011;36654;45.042;38.994;2023-05-07T03:32:17;7.90;;;3.03;;
50683;SDS011;36654;45.042;38.994;2023-05-07T03:34:42;4.85;;;2.65;;
50683;SDS011;36654;45.042;38.994;2023-05-07T03:37:08;7.40;;;3.08;;
50683;SDS011;36654;45.042;38.994;2023-05-07T03:39:34;5.60;;;3.03;;
50683;SDS011;36654;45.042;38.994;2023-05-07T03:42:00;7.05;;;2.67;;
50683;SDS011;36654;45.042;38.994;2023-05-07T03:44:26;6.32;;;3.05;;
50683;SDS011;36654;45.042;38.994;2023-05-07T03:46:51;8.82;;;2.70;;
50683;SDS011;36654;45.042;38.994;2023-05-07T03:49:17;9.10;;;2.97;;
50683;SDS011;36654;45.042;38.994;2023-05-07T03:51:43;9.38;;;3.55;;
50683;SDS011;36654;45.042;38.994;2023-05-07T03:54:08;7.00;;;2.67;;
50683;SDS011;36654;45.042;38.994;2023-05-07T03:56:34;4.40;;;2.50;;
50683;SDS011;36654;45.042;38.994;2023-05-07T03:59:00;9.25;;;3.13;;
50683;SDS011;36654;45.042;38.994;2023-05-07T04:01:26;3.90;;;2.50;;
50683;SDS011;36654;45.042;38.994;2023-05-07T04:03:52;8.25;;;3.33;;
50683;SDS011;36654;45.042;38.994;2023-05-07T04:06:17;5.50;;;2.78;;
50683;SDS011;36654;45.042;38.994;2023-05-07T04:08:43;6.80;;;3.05;;
50683;SDS011;36654;45.042;38.994;2023-05-07T04:11:09;6.82;;;2.97;;
50683;SDS011;36654;45.042;38.994;2023-05-07T04:13:34;3.03;;;2.63;;
50683;SDS011;36654;45.042;38.994;2023-05-07T04:16:03;20.85;;;3.33;;
50683;SDS011;36654;45.042;38.994;2023-05-07T04:18:30;7.50;;;2.90;;
50683;SDS011;36654;45.042;38.994;2023-05-07T04:20:56;3.80;;;2.65;;
50683;SDS011;36654;45.042;38.994;2023-05-07T04:23:21;6.88;;;2.83;;
50683;SDS011;36654;45.042;38.994;2023-05-07T04:25:47;4.78;;;2.78;;
50683;SDS011;36654;45.042;38.994;2023-05-07T04:28:13;5.20;;;2.42;;
50683;SDS011;36654;45.042;38.994;2023-05-07T04:30:39;5.45;;;2.55;;
50683;SDS011;36654;45.042;38.994;2023-05-07T04:33:06;6.85;;;2.42;;
50683;SDS011;36654;45.042;38.994;2023-05-07T04:35:32;3.10;;;2.47;;
50683;SDS011;36654;45.042;38.994;2023-05-07T04:37:58;5.22;;;2.50;;
50683;SDS011;36654;45.042;38.994;2023-05-07T04:40:23;3.88;;;2.40;;
50683;SDS011;36654;45.042;38.994;2023-05-07T04:42:49;4.15;;;2.70;;
50683;SDS011;36654;45.042;38.994;2023-05-07T04:45:15;9.02;;;2.60;;
50683;SDS011;36654;45.042;38.994;2023-05-07T04:47:41;7.28;;;2.65;;
50683;SDS011;36654;45.042;38.994;2023-05-07T04:50:07;2.35;;;2.10;;
50683;SDS011;36654;45.042;38.994;2023-05-07T04:52:33;3.25;;;2.35;;
50683;SDS011;36654;45.042;38.994;2023-05-07T04:54:59;6.60;;;2.90;;
50683;SDS011;36654;45.042;38.994;2023-05-07T04:57:25;4.20;;;2.58;;
50683;SDS011;36654;45.042;38.994;2023-05-07T04:59:51;4.85;;;2.58;;
50683;SDS011;36654;45.042;38.994;2023-05-07T05:02:17;4.10;;;2.22;;
50683;SDS011;36654;45.042;38.994;2023-05-07T05:04:43;5.35;;;2.20;;
50683;SDS011;36654;45.042;38.994;2023-05-07T05:07:08;4.53;;;2.38;;
50683;SDS011;36654;45.042;38.994;2023-05-07T05:09:34;3.53;;;2.53;;
50683;SDS011;36654;45.042;38.994;2023-05-07T05:12:00;6.40;;;2.22;;
50683;SDS011;36654;45.042;38.994;2023-05-07T05:14:25;6.07;;;2.10;;
50683;SDS011;36654;45.042;38.994;2023-05-07T05:16:51;7.93;;;2.42;;
50683;SDS011;36654;45.042;38.994;2023-05-07T05:19:16;8.30;;;2.83;;
50683;SDS011;36654;45.042;38.994;2023-05-07T05:21:42;4.97;;;1.90;;
50683;SDS011;36654;45.042;38.994;2023-05-07T05:24:08;3.17;;;2.10;;
50683;SDS011;36654;45.042;38.994;2023-05-07T05:26:34;5.43;;;2.40;;
50683;SDS011;36654;45.042;38.994;2023-05-07T05:28:59;3.35;;;2.38;;
50683;SDS011;36654;45.042;38.994;2023-05-07T05:31:25;9.43;;;2.88;;
50683;SDS011;36654;45.042;38.994;2023-05-07T05:33:51;4.72;;;2.55;;
50683;SDS011;36654;45.042;38.994;2023-05-07T05:36:16;7.63;;;2.30;;
50683;SDS011;36654;45.042;38.994;2023-05-07T05:38:42;5.13;;;2.63;;
50683;SDS011;36654;45.042;38.994;2023-05-07T05:41:09;4.43;;;2.60;;
50683;SDS011;36654;45.042;38.994;2023-05-07T05:43:35;7.38;;;3.33;;
50683;SDS011;36654;45.042;38.994;2023-05-07T05:46:00;5.63;;;2.60;;
50683;SDS011;36654;45.042;38.994;2023-05-07T05:48:26;12.00;;;2.50;;
50683;SDS011;36654;45.042;38.994;2023-05-07T05:50:52;5.18;;;2.42;;
50683;SDS011;36654;45.042;38.994;2023-05-07T05:53:18;7.70;;;3.00;;
50683;SDS011;36654;45.042;38.994;2023-05-07T05:55:43;2.58;;;2.38;;
50683;SDS011;36654;45.042;38.994;2023-05-07T05:58:09;5.82;;;2.83;;
50683;SDS011;36654;45.042;38.994;2023-05-07T06:00:35;6.35;;;2.47;;
50683;SDS011;36654;45.042;38.994;2023-05-07T06:03:01;5.55;;;2.40;;
50683;SDS011;36654;45.042;38.994;2023-05-07T06:05:26;4.88;;;2.85;;
50683;SDS011;36654;45.042;38.994;2023-05-07T06:07:52;5.18;;;2.42;;
50683;SDS011;36654;45.042;38.994;2023-05-07T06:10:17;5.32;;;2.75;;
50683;SDS011;36654;45.042;38.994;2023-05-07T06:12:44;7.30;;;2.55;;
50683;SDS011;36654;45.042;38.994;2023-05-07T06:15:09;9.13;;;2.72;;
50683;SDS011;36654;45.042;38.994;2023-05-07T06:17:35;9.90;;;3.13;;
50683;SDS011;36654;45.042;38.994;2023-05-07T06:20:01;5.50;;;2.95;;
50683;SDS011;36654;45.042;38.994;2023-05-07T06:22:27;4.57;;;2.60;;
50683;SDS011;36654;45.042;38.994;2023-05-07T06:24:52;7.70;;;2.92;;
50683;SDS011;36654;45.042;38.994;2023-05-07T06:27:18;6.25;;;2.67;;
50683;SDS011;36654;45.042;38.994;2023-05-07T06:29:43;10.35;;;3.08;;
50683;SDS011;36654;45.042;38.994;2023-05-07T06:32:12;6.90;;;2.85;;
50683;SDS011;36654;45.042;38.994;2023-05-07T06:34:39;4.82;;;2.92;;
50683;SDS011;36654;45.042;38.994;2023-05-07T06:37:05;7.47;;;2.83;;
50683;SDS011;36654;45.042;38.994;2023-05-07T06:39:31;8.85;;;3.17;;
50683;SDS011;36654;45.042;38.994;2023-05-07T06:41:57;14.82;;;3.15;;
50683;SDS011;36654;45.042;38.994;2023-05-07T06:44:23;8.18;;;3.50;;
50683;SDS011;36654;45.042;38.994;2023-05-07T06:46:49;3.72;;;2.75;;
50683;SDS011;36654;45.042;38.994;2023-05-07T06:49:15;7.45;;;3.13;;
50683;SDS011;36654;45.042;38.994;2023-05-07T06:51:41;5.78;;;2.70;;
50683;SDS011;36654;45.042;38.994;2023-05-07T06:54:06;7.93;;;3.13;;
50683;SDS011;36654;45.042;38.994;2023-05-07T06:56:32;7.05;;;3.38;;
50683;SDS011;36654;45.042;38.994;2023-05-07T06:59:02;7.75;;;2.97;;
50683;SDS011;36654;45.042;38.994;2023-05-07T07:01:28;9.00;;;3.25;;
50683;SDS011;36654;45.042;38.994;2023-05-07T07:03:53;5.35;;;2.90;;
50683;SDS011;36654;45.042;38.994;2023-05-07T07:06:19;5.90;;;3.17;;
50683;SDS011;36654;45.042;38.994;2023-05-07T07:08:45;13.65;;;3.20;;
50683;SDS011;36654;45.042;38.994;2023-05-07T07:11:11;4.53;;;2.75;;
50683;SDS011;36654;45.042;38.994;2023-05-07T07:13:37;6.35;;;3.25;;
50683;SDS011;36654;45.042;38.994;2023-05-07T07:16:03;10.45;;;3.30;;
50683;SDS011;36654;45.042;38.994;2023-05-07T07:18:28;8.00;;;3.30;;
50683;SDS011;36654;45.042;38.994;2023-05-07T07:20:54;8.93;;;3.65;;
50683;SDS011;36654;45.042;38.994;2023-05-07T07:23:20;6.55;;;3.17;;
50683;SDS011;36654;45.042;38.994;2023-05-07T07:25:46;7.03;;;3.60;;
50683;SDS011;36654;45.042;38.994;2023-05-07T07:28:12;4.13;;;2.90;;
50683;SDS011;36654;45.042;38.994;2023-05-07T07:30:38;7.25;;;3.15;;
50683;SDS011;36654;45.042;38.994;2023-05-07T07:33:03;7.95;;;3.05;;
50683;SDS011;36654;45.042;38.994;2023-05-07T07:35:30;6.05;;;3.08;;
50683;SDS011;36654;45.042;38.994;2023-05-07T07:37:56;6.88;;;3.15;;
50683;SDS011;36654;45.042;38.994;2023-05-07T07:40:22;8.68;;;3.30;;
50683;SDS011;36654;45.042;38.994;2023-05-07T07:42:48;8.32;;;3.22;;
50683;SDS011;36654;45.042;38.994;2023-05-07T07:45:14;6.47;;;3.08;;
50683;SDS011;36654;45.042;38.994;2023-05-07T07:47:40;9.23;;;3.63;;
50683;SDS011;36654;45.042;38.994;2023-05-07T07:50:06;6.75;;;3.35;;
50683;SDS011;36654;45.042;38.994;2023-05-07T07:52:32;10.43;;;3.15;;
50683;SDS011;36654;45.042;38.994;2023-05-07T07:54:58;8.60;;;3.42;;
50683;SDS011;36654;45.042;38.994;2023-05-07T07:57:23;12.50;;;4.05;;
50683;SDS011;36654;45.042;38.994;2023-05-07T07:59:49;8.40;;;3.50;;
50683;SDS011;36654;45.042;38.994;2023-05-07T08:02:15;8.25;;;3.83;;
50683;SDS011;36654;45.042;38.994;2023-05-07T08:04:41;9.57;;;3.45;;
50683;SDS011;36654;45.042;38.994;2023-05-07T08:07:09;7.75;;;3.53;;
50683;SDS011;36654;45.042;38.994;2023-05-07T08:09:35;5.10;;;3.42;;
50683;SDS011;36654;45.042;38.994;2023-05-07T08:12:02;15.90;;;4.10;;
50683;SDS011;36654;45.042;38.994;2023-05-07T08:14:28;7.57;;;4.28;;
50683;SDS011;36654;45.042;38.994;2023-05-07T08:16:54;5.95;;;2.90;;
50683;SDS011;36654;45.042;38.994;2023-05-07T08:19:20;4.20;;;3.42;;
50683;SDS011;36654;45.042;38.994;2023-05-07T08:21:46;8.10;;;3.78;;
50683;SDS011;36654;45.042;38.994;2023-05-07T08:24:15;15.52;;;4.80;;
50683;SDS011;36654;45.042;38.994;2023-05-07T08:26:43;5.03;;;3.67;;
50683;SDS011;36654;45.042;38.994;2023-05-07T08:29:09;6.20;;;3.50;;
50683;SDS011;36654;45.042;38.994;2023-05-07T08:31:35;9.20;;;3.83;;
50683;SDS011;36654;45.042;38.994;2023-05-07T08:34:00;8.90;;;3.58;;
50683;SDS011;36654;45.042;38.994;2023-05-07T08:36:26;14.00;;;3.85;;
50683;SDS011;36654;45.042;38.994;2023-05-07T08:38:52;8.68;;;3.67;;
50683;SDS011;36654;45.042;38.994;2023-05-07T08:41:18;6.60;;;3.50;;
50683;SDS011;36654;45.042;38.994;2023-05-07T08:43:47;8.95;;;3.90;;
50683;SDS011;36654;45.042;38.994;2023-05-07T08:46:18;10.15;;;4.07;;
50683;SDS011;36654;45.042;38.994;2023-05-07T08:48:48;11.25;;;4.32;;
50683;SDS011;36654;45.042;38.994;2023-05-07T08:51:16;10.50;;;3.63;;
50683;SDS011;36654;45.042;38.994;2023-05-07T08:53:46;4.45;;;3.83;;
50683;SDS011;36654;45.042;38.994;2023-05-07T08:56:16;7.43;;;3.40;;
50683;SDS011;36654;45.042;38.994;2023-05-07T08:58:42;5.95;;;4.00;;
50683;SDS011;36654;45.042;38.994;2023-05-07T09:01:10;10.02;;;3.80;;
50683;SDS011;36654;45.042;38.994;2023-05-07T09:03:38;9.52;;;3.70;;
50683;SDS011;36654;45.042;38.994;2023-05-07T09:06:05;8.13;;;3.50;;
50683;SDS011;36654;45.042;38.994;2023-05-07T09:08:32;8.48;;;3.47;;
50683;SDS011;36654;45.042;38.994;2023-05-07T09:10:59;8.15;;;3.70;;
50683;SDS011;36654;45.042;38.994;2023-05-07T09:13:25;18.13;;;4.15;;
50683;SDS011;36654;45.042;38.994;2023-05-07T09:15:52;6.70;;;3.47;;
50683;SDS011;36654;45.042;38.994;2023-05-07T09:18:18;6.93;;;3.88;;
50683;SDS011;36654;45.042;38.994;2023-05-07T09:20:44;6.38;;;3.65;;
50683;SDS011;36654;45.042;38.994;2023-05-07T09:23:09;8.77;;;4.50;;
50683;SDS011;36654;45.042;38.994;2023-05-07T09:25:38;8.13;;;4.13;;
50683;SDS011;36654;45.042;38.994;2023-05-07T09:28:10;8.38;;;4.13;;
50683;SDS011;36654;45.042;38.994;2023-05-07T09:30:36;8.23;;;4.10;;
50683;SDS011;36654;45.042;38.994;2023-05-07T09:33:02;9.88;;;4.05;;
50683;SDS011;36654;45.042;38.994;2023-05-07T09:35:30;6.07;;;3.38;;
50683;SDS011;36654;45.042;38.994;2023-05-07T09:40:29;13.10;;;4.30;;
50683;SDS011;36654;45.042;38.994;2023-05-07T09:43:11;15.48;;;4.68;;
50683;SDS011;36654;45.042;38.994;2023-05-07T09:45:38;6.32;;;3.63;;
50683;SDS011;36654;45.042;38.994;2023-05-07T09:48:13;13.98;;;4.68;;
50683;SDS011;36654;45.042;38.994;2023-05-07T09:50:47;11.65;;;4.38;;
50683;SDS011;36654;45.042;38.994;2023-05-07T09:53:14;5.53;;;4.03;;
50683;SDS011;36654;45.042;38.994;2023-05-07T09:55:42;8.60;;;4.15;;
50683;SDS011;36654;45.042;38.994;2023-05-07T09:58:09;11.13;;;4.65;;
50683;SDS011;36654;45.042;38.994;2023-05-07T10:03:09;14.90;;;4.40;;
50683;SDS011;36654;45.042;38.994;2023-05-07T10:05:37;11.88;;;4.35;;
50683;SDS011;36654;45.042;38.994;2023-05-07T10:08:04;12.25;;;5.75;;
50683;SDS011;36654;45.042;38.994;2023-05-07T10:10:32;10.32;;;4.63;;
50683;SDS011;36654;45.042;38.994;2023-05-07T10:12:59;12.80;;;4.45;;
50683;SDS011;36654;45.042;38.994;2023-05-07T10:15:27;8.13;;;4.05;;
50683;SDS011;36654;45.042;38.994;2023-05-07T10:17:54;11.85;;;4.40;;
50683;SDS011;36654;45.042;38.994;2023-05-07T10:20:20;9.48;;;4.18;;
50683;SDS011;36654;45.042;38.994;2023-05-07T10:22:47;10.70;;;4.70;;
50683;SDS011;36654;45.042;38.994;2023-05-07T10:25:21;9.40;;;4.35;;
50683;SDS011;36654;45.042;38.994;2023-05-07T10:27:50;15.93;;;4.63;;
50683;SDS011;36654;45.042;38.994;2023-05-07T10:30:26;7.72;;;4.18;;
50683;SDS011;36654;45.042;38.994;2023-05-07T10:33:15;10.73;;;4.25;;
50683;SDS011;36654;45.042;38.994;2023-05-07T10:35:45;8.23;;;4.35;;
50683;SDS011;36654;45.042;38.994;2023-05-07T10:38:13;12.85;;;4.53;;
50683;SDS011;36654;45.042;38.994;2023-05-07T10:40:39;11.52;;;4.63;;
50683;SDS011;36654;45.042;38.994;2023-05-07T10:43:05;13.18;;;3.90;;
50683;SDS011;36654;45.042;38.994;2023-05-07T10:45:31;13.02;;;4.53;;
50683;SDS011;36654;45.042;38.994;2023-05-07T10:48:08;12.73;;;4.80;;
50683;SDS011;36654;45.042;38.994;2023-05-07T10:50:38;11.32;;;4.32;;
50683;SDS011;36654;45.042;38.994;2023-05-07T10:55:43;9.05;;;4.30;;
50683;SDS011;36654;45.042;38.994;2023-05-07T11:00:47;9.77;;;4.80;;
50683;SDS011;36654;45.042;38.994;2023-05-07T11:03:14;19.52;;;5.18;;
50683;SDS011;36654;45.042;38.994;2023-05-07T11:05:40;14.90;;;5.35;;
50683;SDS011;36654;45.042;38.994;2023-05-07T11:08:07;15.40;;;6.10;;
50683;SDS011;36654;45.042;38.994;2023-05-07T11:13:42;11.13;;;5.03;;
50683;SDS011;36654;45.042;38.994;2023-05-07T11:16:22;10.35;;;5.20;;
50683;SDS011;36654;45.042;38.994;2023-05-07T11:18:49;16.45;;;6.28;;
50683;SDS011;36654;45.042;38.994;2023-05-07T11:21:31;16.42;;;5.75;;
50683;SDS011;36654;45.042;38.994;2023-05-07T11:23:58;14.07;;;5.53;;
50683;SDS011;36654;45.042;38.994;2023-05-07T11:26:25;16.67;;;5.05;;
50683;SDS011;36654;45.042;38.994;2023-05-07T11:28:51;15.38;;;5.07;;
50683;SDS011;36654;45.042;38.994;2023-05-07T11:31:22;15.63;;;5.00;;
50683;SDS011;36654;45.042;38.994;2023-05-07T11:33:49;11.85;;;4.32;;
50683;SDS011;36654;45.042;38.994;2023-05-07T11:36:15;18.70;;;5.28;;
50683;SDS011;36654;45.042;38.994;2023-05-07T11:38:41;10.30;;;5.28;;
50683;SDS011;36654;45.042;38.994;2023-05-07T11:41:07;11.75;;;6.00;;
50683;SDS011;36654;45.042;38.994;2023-05-07T11:43:33;10.23;;;5.10;;
50683;SDS011;36654;45.042;38.994;2023-05-07T11:46:09;13.10;;;5.68;;
50683;SDS011;36654;45.042;38.994;2023-05-07T11:48:36;14.25;;;5.90;;
50683;SDS011;36654;45.042;38.994;2023-05-07T11:51:03;9.88;;;5.20;;
50683;SDS011;36654;45.042;38.994;2023-05-07T11:53:39;11.00;;;5.60;;
50683;SDS011;36654;45.042;38.994;2023-05-07T11:56:07;14.80;;;6.18;;
50683;SDS011;36654;45.042;38.994;2023-05-07T11:58:33;9.75;;;5.22;;
50683;SDS011;36654;45.042;38.994;2023-05-07T12:00:58;12.40;;;5.30;;
50683;SDS011;36654;45.042;38.994;2023-05-07T12:03:24;6.85;;;5.35;;
50683;SDS011;36654;45.042;38.994;2023-05-07T12:05:50;8.50;;;5.22;;
50683;SDS011;36654;45.042;38.994;2023-05-07T12:08:16;13.23;;;6.15;;
50683;SDS011;36654;45.042;38.994;2023-05-07T12:10:45;10.32;;;5.40;;
50683;SDS011;36654;45.042;38.994;2023-05-07T12:13:18;7.97;;;5.18;;
50683;SDS011;36654;45.042;38.994;2023-05-07T12:15:45;13.15;;;5.03;;
50683;SDS011;36654;45.042;38.994;2023-05-07T12:18:11;17.95;;;6.05;;
50683;SDS011;36654;45.042;38.994;2023-05-07T12:20:37;11.60;;;5.43;;
50683;SDS011;36654;45.042;38.994;2023-05-07T12:23:03;10.45;;;6.03;;
50683;SDS011;36654;45.042;38.994;2023-05-07T12:25:38;12.63;;;5.78;;
50683;SDS011;36654;45.042;38.994;2023-05-07T12:28:05;11.40;;;5.38;;
50683;SDS011;36654;45.042;38.994;2023-05-07T12:30:53;12.77;;;6.43;;
50683;SDS011;36654;45.042;38.994;2023-05-07T12:33:19;11.68;;;5.95;;
50683;SDS011;36654;45.042;38.994;2023-05-07T12:35:49;9.35;;;6.47;;
50683;SDS011;36654;45.042;38.994;2023-05-07T12:38:15;15.45;;;5.82;;
50683;SDS011;36654;45.042;38.994;2023-05-07T12:43:16;11.65;;;5.88;;
50683;SDS011;36654;45.042;38.994;2023-05-07T12:45:56;14.48;;;7.05;;
50683;SDS011;36654;45.042;38.994;2023-05-07T12:48:24;13.95;;;6.13;;
50683;SDS011;36654;45.042;38.994;2023-05-07T12:50:53;16.02;;;6.38;;
50683;SDS011;36654;45.042;38.994;2023-05-07T12:53:21;22.85;;;6.43;;
50683;SDS011;36654;45.042;38.994;2023-05-07T12:55:48;15.80;;;6.57;;
50683;SDS011;36654;45.042;38.994;2023-05-07T12:58:18;15.35;;;6.38;;
50683;SDS011;36654;45.042;38.994;2023-05-07T13:00:47;13.80;;;6.13;;
50683;SDS011;36654;45.042;38.994;2023-05-07T13:06:13;11.50;;;5.22;;
50683;SDS011;36654;45.042;38.994;2023-05-07T13:08:39;10.88;;;5.30;;
50683;SDS011;36654;45.042;38.994;2023-05-07T13:11:08;12.27;;;5.72;;
50683;SDS011;36654;45.042;38.994;2023-05-07T13:13:35;12.73;;;5.18;;
50683;SDS011;36654;45.042;38.994;2023-05-07T13:16:03;11.32;;;5.60;;
50683;SDS011;36654;45.042;38.994;2023-05-07T13:18:29;7.95;;;4.88;;
50683;SDS011;36654;45.042;38.994;2023-05-07T13:20:56;10.60;;;4.68;;
50683;SDS011;36654;45.042;38.994;2023-05-07T13:23:21;9.55;;;4.90;;
50683;SDS011;36654;45.042;38.994;2023-05-07T13:25:47;9.55;;;5.00;;
50683;SDS011;36654;45.042;38.994;2023-05-07T13:28:13;10.95;;;5.03;;
50683;SDS011;36654;45.042;38.994;2023-05-07T13:30:39;10.73;;;5.45;;
50683;SDS011;36654;45.042;38.994;2023-05-07T13:33:06;10.95;;;5.15;;
50683;SDS011;36654;45.042;38.994;2023-05-07T13:35:32;10.88;;;5.05;;
50683;SDS011;36654;45.042;38.994;2023-05-07T13:37:57;10.13;;;5.40;;
50683;SDS011;36654;45.042;38.994;2023-05-07T13:40:23;10.13;;;5.57;;
50683;SDS011;36654;45.042;38.994;2023-05-07T13:42:49;6.70;;;4.78;;
50683;SDS011;36654;45.042;38.994;2023-05-07T13:45:16;6.03;;;4.60;;
50683;SDS011;36654;45.042;38.994;2023-05-07T13:47:45;10.60;;;5.07;;
50683;SDS011;36654;45.042;38.994;2023-05-07T13:50:11;7.20;;;4.95;;
50683;SDS011;36654;45.042;38.994;2023-05-07T13:52:40;8.55;;;4.55;;
50683;SDS011;36654;45.042;38.994;2023-05-07T13:57:32;9.80;;;4.18;;
50683;SDS011;36654;45.042;38.994;2023-05-07T13:59:58;9.45;;;4.53;;
50683;SDS011;36654;45.042;38.994;2023-05-07T14:02:24;8.48;;;4.20;;
50683;SDS011;36654;45.042;38.994;2023-05-07T14:04:49;9.75;;;4.78;;
50683;SDS011;36654;45.042;38.994;2023-05-07T14:07:15;9.77;;;4.55;;
50683;SDS011;36654;45.042;38.994;2023-05-07T14:09:40;9.63;;;3.60;;
50683;SDS011;36654;45.042;38.994;2023-05-07T14:12:06;8.43;;;4.00;;
50683;SDS011;36654;45.042;38.994;2023-05-07T14:14:32;8.32;;;3.63;;
50683;SDS011;36654;45.042;38.994;2023-05-07T14:16:58;9.55;;;4.18;;
50683;SDS011;36654;45.042;38.994;2023-05-07T14:19:23;12.15;;;4.22;;
50683;SDS011;36654;45.042;38.994;2023-05-07T14:21:49;7.05;;;3.90;;
50683;SDS011;36654;45.042;38.994;2023-05-07T14:24:15;7.72;;;3.72;;
50683;SDS011;36654;45.042;38.994;2023-05-07T14:26:40;13.73;;;4.47;;
50683;SDS011;36654;45.042;38.994;2023-05-07T14:29:06;7.78;;;4.03;;
50683;SDS011;36654;45.042;38.994;2023-05-07T14:31:31;7.53;;;4.03;;
50683;SDS011;36654;45.042;38.994;2023-05-07T14:33:58;6.80;;;3.88;;
50683;SDS011;36654;45.042;38.994;2023-05-07T14:36:24;10.65;;;4.07;;
50683;SDS011;36654;45.042;38.994;2023-05-07T14:38:55;10.23;;;4.85;;
50683;SDS011;36654;45.042;38.994;2023-05-07T14:41:21;11.55;;;4.82;;
50683;SDS011;36654;45.042;38.994;2023-05-07T14:43:47;5.50;;;3.42;;
50683;SDS011;36654;45.042;38.994;2023-05-07T14:46:18;6.13;;;3.47;;
50683;SDS011;36654;45.042;38.994;2023-05-07T14:48:44;8.93;;;3.60;;
50683;SDS011;36654;45.042;38.994;2023-05-07T14:51:11;9.18;;;3.00;;